Terminal Aerodrome Forecast
Issued by NWS Grand Forks, ND

Home | Current Version | Previous Version | Text Only | Print | Product List | Glossary Off
Versions: 1 2 3 4 5 6 7 8 9 10 11 12

000
FTUS43 KFGF 301720
TAFGFK
TAF
KGFK 301720Z 3018/0118 05018G26KT P6SM FEW250
     FM302300 05014KT P6SM SKC
     FM010200 05008KT P6SM SKC
     FM010700 02006KT P6SM SKC=

USA.gov is the U.S. government's official web portal to all federal, state and local government web resources and services.